createdAt,value
2022-12-15T00:02:49.973Z,32.53
2022-12-15T00:05:58.799Z,31.77
2022-12-15T00:09:13.898Z,34.25
2022-12-15T00:12:23.012Z,35.60
2022-12-15T00:15:31.814Z,33.78
2022-12-15T00:18:40.568Z,33.30
2022-12-15T00:21:49.342Z,35.15
2022-12-15T00:24:58.126Z,33.30
2022-12-15T00:28:06.963Z,34.10
2022-12-15T00:31:17.480Z,34.55
2022-12-15T00:34:26.321Z,35.00
2022-12-15T00:37:35.046Z,34.42
2022-12-15T00:40:25.168Z,33.47
2022-12-15T00:43:15.124Z,33.33
2022-12-15T00:46:24.201Z,33.30
2022-12-15T00:49:33.052Z,35.88
2022-12-15T00:52:41.892Z,34.78
2022-12-15T00:55:50.633Z,35.13
2022-12-15T00:58:59.119Z,33.20
2022-12-15T01:02:07.849Z,35.63
2022-12-15T01:05:16.440Z,34.25
2022-12-15T01:08:25.218Z,34.10
2022-12-15T01:11:34.042Z,33.50
2022-12-15T01:14:43.436Z,34.10
2022-12-15T01:17:52.370Z,34.25
2022-12-15T01:20:42.701Z,32.47
2022-12-15T01:23:33.728Z,34.35
2022-12-15T01:26:24.517Z,35.72
2022-12-15T01:29:15.013Z,32.65
2022-12-15T01:32:05.144Z,34.00
2022-12-15T01:34:55.307Z,30.90
2022-12-15T01:37:45.380Z,32.70
2022-12-15T01:40:50.079Z,34.50
2022-12-15T01:43:40.883Z,33.13
2022-12-15T01:46:31.267Z,34.55
2022-12-15T01:49:25.283Z,34.40
2022-12-15T01:52:16.983Z,33.97
2022-12-15T01:55:07.514Z,33.25
2022-12-15T01:58:01.738Z,32.60
2022-12-15T02:00:52.108Z,33.22
2022-12-15T02:03:44.069Z,33.38
2022-12-15T02:06:35.893Z,30.92
2022-12-15T02:09:28.311Z,32.83
2022-12-15T02:12:41.851Z,30.73
2022-12-15T02:15:40.654Z,30.85
2022-12-15T02:18:46.309Z,31.48
2022-12-15T02:21:47.102Z,30.15
2022-12-15T02:25:05.622Z,30.83
2022-12-15T02:28:01.608Z,30.50
2022-12-15T02:31:16.069Z,31.20
2022-12-15T02:34:15.073Z,31.30
2022-12-15T02:37:15.397Z,30.55
2022-12-15T02:40:08.980Z,29.48
2022-12-15T02:43:03.694Z,31.08
2022-12-15T02:46:22.658Z,29.95
2022-12-15T02:49:35.895Z,28.92
2022-12-15T02:52:58.745Z,29.55
2022-12-15T02:56:00.469Z,29.50
2022-12-15T02:59:19.328Z,27.75
2022-12-15T03:02:10.852Z,31.08
2022-12-15T03:05:01.321Z,30.92
2022-12-15T03:07:52.902Z,30.77
2022-12-15T03:10:43.179Z,30.08
2022-12-15T03:13:33.515Z,29.63
2022-12-15T03:16:24.492Z,28.35
2022-12-15T03:19:14.804Z,28.98
2022-12-15T03:22:05.100Z,30.02
2022-12-15T03:24:55.246Z,29.90
2022-12-15T03:27:46.105Z,30.75
2022-12-15T03:30:36.167Z,28.80
2022-12-15T03:33:25.972Z,30.73
2022-12-15T03:36:15.755Z,28.13
2022-12-15T03:39:06.390Z,30.65
2022-12-15T03:41:56.526Z,29.23
2022-12-15T03:44:46.363Z,29.00
2022-12-15T03:47:40.934Z,29.17
2022-12-15T03:50:30.880Z,29.65
2022-12-15T03:53:20.836Z,29.77
2022-12-15T03:56:10.727Z,29.85
2022-12-15T03:59:00.698Z,32.45
2022-12-15T04:01:50.689Z,30.25
2022-12-15T04:04:41.113Z,29.98
2022-12-15T04:07:30.958Z,29.65
2022-12-15T04:10:21.442Z,29.83
2022-12-15T04:13:11.782Z,28.70
2022-12-15T04:16:02.888Z,30.67
2022-12-15T04:19:12.706Z,31.10
2022-12-15T04:22:03.647Z,30.90
2022-12-15T04:25:12.735Z,30.45
2022-12-15T04:28:21.912Z,29.60
2022-12-15T04:31:38.943Z,28.55
2022-12-15T04:34:48.269Z,28.27
2022-12-15T04:37:56.986Z,28.67
2022-12-15T04:41:05.714Z,30.02
2022-12-15T04:44:14.692Z,28.40
2022-12-15T04:47:23.298Z,27.63
2022-12-15T04:50:32.108Z,29.65
2022-12-15T04:53:40.648Z,29.88
2022-12-15T04:56:50.328Z,28.92
2022-12-15T04:59:59.283Z,28.35
2022-12-15T05:03:10.335Z,28.63
2022-12-15T05:06:20.914Z,28.75
2022-12-15T05:09:29.759Z,28.65
2022-12-15T05:12:38.557Z,29.02
2022-12-15T05:15:47.805Z,31.48
2022-12-15T05:18:56.363Z,29.33
2022-12-15T05:22:05.151Z,29.33
2022-12-15T05:25:13.761Z,30.30
2022-12-15T05:28:25.087Z,28.73
2022-12-15T05:31:33.870Z,28.35
2022-12-15T05:34:26.193Z,29.25
2022-12-15T05:37:16.244Z,27.88
2022-12-15T05:40:06.744Z,27.92
2022-12-15T05:43:00.478Z,29.02
2022-12-15T05:45:50.471Z,28.30
2022-12-15T05:48:41.738Z,29.65
2022-12-15T05:51:32.051Z,29.67
2022-12-15T05:54:22.831Z,28.88
2022-12-15T05:57:12.749Z,29.08
2022-12-15T06:00:05.403Z,28.95
2022-12-15T06:03:02.739Z,27.55
2022-12-15T06:05:56.415Z,27.58
2022-12-15T06:08:47.249Z,28.88
2022-12-15T06:11:40.207Z,30.37
2022-12-15T06:14:31.223Z,28.98
2022-12-15T06:17:21.243Z,29.55
2022-12-15T06:20:11.684Z,28.42
2022-12-15T06:23:01.957Z,29.90
2022-12-15T06:25:51.980Z,30.00
2022-12-15T06:28:42.322Z,29.77
2022-12-15T06:31:32.996Z,29.55
2022-12-15T06:34:23.191Z,28.83
2022-12-15T06:37:13.035Z,28.67
2022-12-15T06:40:03.551Z,28.75
2022-12-15T06:42:53.667Z,30.83
2022-12-15T06:45:49.802Z,28.90
2022-12-15T06:48:40.039Z,30.05
2022-12-15T06:51:30.254Z,29.58
2022-12-15T06:54:20.700Z,30.48
2022-12-15T06:57:10.963Z,30.95
2022-12-15T07:00:01.077Z,30.20
2022-12-15T07:02:51.733Z,31.52
2022-12-15T07:05:43.866Z,28.95
2022-12-15T07:08:40.957Z,29.13
2022-12-15T07:11:31.789Z,28.58
2022-12-15T07:14:23.084Z,28.98
2022-12-15T07:17:13.491Z,30.60
2022-12-15T07:20:07.159Z,29.83
2022-12-15T07:22:57.619Z,29.35
2022-12-15T07:25:47.805Z,29.83
2022-12-15T07:28:38.415Z,30.00
2022-12-15T07:31:30.218Z,30.17
2022-12-15T07:34:20.935Z,30.58
2022-12-15T07:37:11.013Z,30.65
2022-12-15T07:40:01.435Z,29.65
2022-12-15T07:42:51.577Z,30.98
2022-12-15T07:45:45.538Z,30.20
2022-12-15T07:48:38.474Z,29.40
2022-12-15T07:51:28.877Z,28.90
2022-12-15T07:54:19.345Z,32.78
2022-12-15T07:57:09.528Z,30.70
2022-12-15T07:59:59.890Z,30.98
2022-12-15T08:02:50.617Z,29.98
2022-12-15T08:05:41.300Z,30.10
2022-12-15T08:08:32.645Z,32.10
2022-12-15T08:11:24.552Z,30.92
2022-12-15T08:14:18.118Z,30.65
2022-12-15T08:17:08.791Z,30.25
2022-12-15T08:20:01.426Z,28.30
2022-12-15T08:22:53.615Z,30.67
2022-12-15T08:25:43.637Z,29.48
2022-12-15T08:28:35.133Z,29.25
2022-12-15T08:31:25.946Z,30.13
2022-12-15T08:34:16.452Z,28.98
2022-12-15T08:37:06.690Z,28.55
2022-12-15T08:39:57.058Z,29.58
2022-12-15T08:42:47.449Z,29.77
2022-12-15T08:45:40.325Z,30.00
2022-12-15T08:48:31.482Z,30.48
2022-12-15T08:51:23.880Z,30.60
2022-12-15T08:54:14.095Z,27.70
2022-12-15T08:57:05.298Z,29.88
2022-12-15T08:59:55.574Z,28.50
2022-12-15T09:02:45.605Z,29.52
2022-12-15T09:05:36.989Z,29.35
2022-12-15T09:08:27.157Z,29.35
2022-12-15T09:11:18.007Z,29.10
2022-12-15T09:14:08.141Z,28.02
2022-12-15T09:16:58.299Z,29.27
2022-12-15T09:19:48.813Z,27.30
2022-12-15T09:22:38.973Z,29.20
2022-12-15T09:25:29.935Z,28.83
2022-12-15T09:28:19.851Z,29.02
2022-12-15T09:31:16.371Z,41.53
2022-12-15T09:34:06.847Z,46.90
2022-12-15T09:36:57.166Z,42.90
2022-12-15T09:39:47.062Z,48.28
2022-12-15T09:42:36.906Z,66.15
2022-12-15T09:45:37.323Z,45.03
2022-12-15T09:48:39.905Z,58.08
2022-12-15T09:51:36.467Z,30.70
2022-12-15T09:54:31.252Z,28.50
2022-12-15T09:57:37.372Z,28.13
2022-12-15T10:00:45.621Z,27.38
2022-12-15T10:04:01.068Z,25.35
2022-12-15T10:07:08.606Z,27.08
2022-12-15T10:09:58.544Z,26.40
2022-12-15T10:13:00.122Z,26.70
2022-12-15T10:16:00.606Z,27.27
2022-12-15T10:19:09.074Z,26.35
2022-12-15T10:21:59.608Z,27.75
2022-12-15T10:28:10.847Z,26.13
2022-12-15T10:31:12.647Z,25.75
2022-12-15T10:34:22.588Z,25.85
2022-12-15T10:37:21.148Z,25.45
2022-12-15T10:40:18.252Z,24.48
2022-12-15T10:43:24.622Z,26.75
2022-12-15T10:46:24.255Z,26.55
2022-12-15T10:49:14.338Z,25.65
2022-12-15T10:52:04.748Z,25.73
2022-12-15T10:54:55.430Z,24.42
2022-12-15T10:57:59.830Z,24.58
2022-12-15T11:01:06.795Z,23.88
2022-12-15T11:03:57.722Z,24.50
2022-12-15T11:06:56.604Z,23.73
2022-12-15T11:09:48.139Z,25.42
2022-12-15T11:12:58.402Z,24.83
2022-12-15T11:16:02.904Z,23.17
2022-12-15T11:19:08.001Z,29.10
2022-12-15T11:22:09.164Z,28.23
2022-12-15T11:25:10.426Z,24.08
2022-12-15T11:28:03.642Z,23.73
2022-12-15T11:31:01.409Z,26.67
2022-12-15T11:33:54.221Z,25.23
2022-12-15T11:36:57.781Z,25.33
2022-12-15T11:40:19.935Z,23.10
2022-12-15T11:43:32.633Z,27.52
2022-12-15T11:46:43.419Z,29.42
2022-12-15T11:49:58.576Z,29.10
2022-12-15T11:53:09.839Z,29.85
2022-12-15T11:56:18.794Z,29.20
2022-12-15T11:59:25.754Z,25.90
2022-12-15T12:02:38.290Z,25.63
2022-12-15T12:06:05.188Z,26.08
2022-12-15T12:09:03.139Z,23.73
2022-12-15T12:12:29.939Z,24.27
2022-12-15T12:15:51.267Z,24.00
2022-12-15T12:18:50.722Z,23.30
2022-12-15T12:21:45.407Z,24.13
2022-12-15T12:24:45.152Z,22.77
2022-12-15T12:27:58.363Z,22.83
2022-12-15T12:30:50.408Z,22.13
2022-12-15T12:33:48.629Z,24.33
2022-12-15T12:36:41.931Z,23.17
2022-12-15T12:39:33.008Z,24.88
2022-12-15T12:42:35.692Z,26.50
2022-12-15T12:45:31.382Z,25.33
2022-12-15T12:48:30.437Z,24.80
2022-12-15T12:51:39.760Z,22.77
2022-12-15T12:54:33.501Z,24.90
2022-12-15T13:00:28.452Z,23.33
2022-12-15T13:03:20.933Z,22.60
2022-12-15T13:06:21.764Z,22.08
2022-12-15T13:09:17.971Z,33.30
2022-12-15T13:12:53.553Z,22.38
2022-12-15T13:16:01.610Z,22.80
2022-12-15T13:19:04.587Z,23.20
2022-12-15T13:21:55.760Z,21.52
2022-12-15T13:24:50.547Z,23.10
2022-12-15T13:27:41.180Z,21.70
2022-12-15T13:30:31.167Z,22.42
2022-12-15T13:33:22.379Z,23.67
2022-12-15T13:36:12.220Z,21.70
2022-12-15T13:39:04.455Z,21.50
2022-12-15T13:45:21.845Z,22.20
2022-12-15T13:48:25.944Z,22.90
2022-12-15T13:51:42.289Z,22.63
2022-12-15T13:54:40.071Z,21.48
2022-12-15T13:57:34.388Z,21.15
2022-12-15T14:00:24.610Z,21.83
2022-12-15T14:03:14.816Z,22.13
2022-12-15T14:06:13.481Z,21.38
2022-12-15T14:09:05.200Z,21.90
2022-12-15T14:11:56.718Z,19.20
2022-12-15T14:14:49.343Z,20.35
2022-12-15T14:17:39.475Z,19.52
2022-12-15T14:20:32.391Z,19.77
2022-12-15T14:23:25.979Z,21.13
2022-12-15T14:26:16.807Z,19.90
2022-12-15T14:29:07.022Z,23.95
2022-12-15T14:31:58.184Z,24.67
2022-12-15T14:34:50.917Z,30.52
2022-12-15T14:37:41.432Z,20.38
2022-12-15T14:40:35.791Z,21.48
2022-12-15T14:43:35.011Z,21.05
2022-12-15T14:46:27.401Z,20.60
2022-12-15T14:49:21.619Z,26.92
2022-12-15T14:55:29.941Z,22.23
2022-12-15T14:58:26.457Z,26.98
2022-12-15T15:01:41.709Z,23.40
2022-12-15T15:04:34.077Z,31.67
2022-12-15T15:07:24.172Z,21.13
2022-12-15T15:10:24.211Z,19.05
2022-12-15T15:13:19.041Z,25.95
2022-12-15T15:16:16.554Z,20.77
2022-12-15T15:19:07.239Z,19.15
2022-12-15T15:22:00.731Z,20.25
2022-12-15T15:27:41.552Z,20.08
2022-12-15T15:30:41.862Z,22.80
2022-12-15T15:33:32.608Z,21.30
2022-12-15T15:36:24.981Z,23.10
2022-12-15T15:39:16.002Z,23.10
2022-12-15T15:42:15.410Z,23.20
2022-12-15T15:45:13.555Z,25.52
2022-12-15T15:48:03.773Z,24.35
2022-12-15T15:50:54.384Z,23.83
2022-12-15T15:53:45.290Z,24.30
2022-12-15T15:56:35.220Z,24.23
2022-12-15T15:59:26.760Z,25.88
2022-12-15T16:02:17.294Z,26.40
2022-12-15T16:05:07.947Z,25.65
2022-12-15T16:07:58.693Z,24.50
2022-12-15T16:10:49.315Z,28.63
2022-12-15T16:13:40.189Z,31.50
2022-12-15T16:16:32.933Z,30.83
2022-12-15T16:19:23.973Z,34.65
2022-12-15T16:22:20.532Z,28.77
2022-12-15T16:25:17.305Z,26.67
2022-12-15T16:28:19.298Z,28.15
2022-12-15T16:31:29.022Z,25.65
2022-12-15T16:34:20.470Z,27.83
2022-12-15T16:37:25.119Z,24.33
2022-12-15T16:40:24.387Z,24.60
2022-12-15T16:43:17.138Z,23.45
2022-12-15T16:46:11.757Z,26.50
2022-12-15T16:49:02.069Z,24.02
2022-12-15T16:51:54.056Z,26.45
2022-12-15T16:54:47.935Z,28.35
2022-12-15T16:57:38.631Z,32.10
2022-12-15T17:00:32.366Z,27.33
2022-12-15T17:03:25.890Z,32.83
2022-12-15T17:06:17.569Z,28.23
2022-12-15T17:09:18.760Z,25.52
2022-12-15T17:12:15.111Z,24.90
2022-12-15T17:15:17.253Z,25.88
2022-12-15T17:18:07.748Z,24.73
2022-12-15T17:21:13.478Z,23.65
2022-12-15T17:24:11.872Z,25.30
2022-12-15T17:27:02.309Z,26.08
2022-12-15T17:29:52.792Z,26.13
2022-12-15T17:32:44.503Z,26.27
2022-12-15T17:35:34.847Z,25.20
2022-12-15T17:38:25.386Z,22.75
2022-12-15T17:41:35.138Z,23.73
2022-12-15T17:44:33.742Z,24.45
2022-12-15T17:47:31.997Z,24.17
2022-12-15T17:50:50.104Z,22.30
2022-12-15T17:53:41.252Z,23.38
2022-12-15T17:56:32.079Z,23.42
2022-12-15T17:59:22.810Z,23.38
2022-12-15T18:02:14.480Z,25.48
2022-12-15T18:05:05.794Z,25.08
2022-12-15T18:07:58.560Z,23.67
2022-12-15T18:10:54.064Z,22.75
2022-12-15T18:13:49.057Z,23.92
2022-12-15T18:16:39.391Z,25.17
2022-12-15T18:19:50.065Z,25.42
2022-12-15T18:22:56.510Z,23.42
2022-12-15T18:25:46.641Z,23.83
2022-12-15T18:28:44.272Z,25.55
2022-12-15T18:31:35.052Z,25.27
2022-12-15T18:34:25.129Z,25.23
2022-12-15T18:37:17.418Z,24.60
2022-12-15T18:40:29.893Z,23.42
2022-12-15T18:43:29.924Z,24.10
2022-12-15T18:46:20.391Z,24.58
2022-12-15T18:49:12.200Z,24.13
2022-12-15T18:52:02.203Z,22.90
2022-12-15T18:54:54.154Z,25.50
2022-12-15T18:57:44.627Z,25.63
2022-12-15T19:00:35.123Z,25.70
2022-12-15T19:03:26.509Z,26.35
2022-12-15T19:06:26.223Z,25.00
2022-12-15T19:09:20.399Z,25.60
2022-12-15T19:15:19.287Z,23.92
2022-12-15T19:18:36.513Z,24.33
2022-12-15T19:21:44.299Z,24.15
2022-12-15T19:24:53.079Z,22.85
2022-12-15T19:27:43.420Z,22.60
2022-12-15T19:30:38.527Z,25.15
2022-12-15T19:33:32.438Z,24.48
2022-12-15T19:36:24.289Z,24.60
2022-12-15T19:39:24.443Z,24.73
2022-12-15T19:42:19.673Z,25.35
2022-12-15T19:45:22.460Z,26.38
2022-12-15T19:48:13.164Z,25.07
2022-12-15T19:51:03.507Z,23.67
2022-12-15T19:53:54.039Z,23.35
2022-12-15T19:56:44.657Z,24.90
2022-12-15T19:59:34.873Z,24.67
2022-12-15T20:02:26.488Z,24.40
2022-12-15T20:05:26.358Z,25.10
2022-12-15T20:08:24.714Z,23.67
2022-12-15T20:11:21.509Z,23.45
2022-12-15T20:14:17.371Z,25.48
2022-12-15T20:17:07.892Z,24.67
2022-12-15T20:19:58.019Z,24.85
2022-12-15T20:22:52.064Z,24.25
2022-12-15T20:25:42.843Z,24.38
2022-12-15T20:28:33.153Z,23.73
2022-12-15T20:31:25.318Z,24.88
2022-12-15T20:34:15.575Z,24.52
2022-12-15T20:37:17.571Z,23.38
2022-12-15T20:40:20.466Z,23.88
2022-12-15T20:43:17.312Z,23.77
2022-12-15T20:46:16.284Z,24.98
2022-12-15T20:49:18.495Z,24.15
2022-12-15T20:52:19.558Z,24.00
2022-12-15T20:55:14.453Z,23.67
2022-12-15T20:58:05.911Z,24.17
2022-12-15T21:00:55.961Z,22.45
2022-12-15T21:03:47.731Z,25.73
2022-12-15T21:06:37.807Z,23.17
2022-12-15T21:09:28.023Z,23.90
2022-12-15T21:12:20.888Z,23.92
2022-12-15T21:15:22.448Z,17.77
2022-12-15T21:18:57.273Z,23.80
2022-12-15T21:21:31.177Z,22.33
2022-12-15T21:24:24.923Z,22.55
2022-12-15T21:27:15.413Z,23.50
2022-12-15T21:30:14.730Z,23.13
2022-12-15T21:33:05.601Z,23.35
2022-12-15T21:35:55.859Z,24.65
2022-12-15T21:38:48.882Z,23.60
2022-12-15T21:41:42.842Z,25.15
2022-12-15T21:44:32.770Z,24.73
2022-12-15T21:47:24.507Z,26.02
2022-12-15T21:50:16.252Z,27.05
2022-12-15T21:53:06.994Z,26.67
2022-12-15T21:56:00.084Z,25.85
2022-12-15T21:58:52.456Z,19.23
2022-12-15T22:01:45.884Z,25.05
2022-12-15T22:04:36.303Z,26.80
2022-12-15T22:07:26.247Z,27.08
2022-12-15T22:10:16.433Z,26.58
2022-12-15T22:13:06.448Z,26.08
2022-12-15T22:15:56.508Z,27.02
2022-12-15T22:18:51.070Z,26.90
2022-12-15T22:21:42.273Z,26.95
2022-12-15T22:24:32.313Z,25.80
2022-12-15T22:27:22.878Z,26.88
2022-12-15T22:30:33.231Z,26.65
2022-12-15T22:33:25.609Z,25.30
2022-12-15T22:36:15.582Z,26.25
2022-12-15T22:39:10.675Z,24.80
2022-12-15T22:42:01.807Z,25.90
2022-12-15T22:44:52.095Z,26.63
2022-12-15T22:47:42.890Z,26.70
2022-12-15T22:50:32.775Z,24.63
2022-12-15T22:53:24.310Z,25.17
2022-12-15T22:56:30.607Z,26.45
2022-12-15T22:59:28.172Z,24.38
2022-12-15T23:02:18.093Z,25.40
2022-12-15T23:05:09.296Z,26.52
2022-12-15T23:07:59.261Z,25.60
2022-12-15T23:11:08.073Z,26.77
2022-12-15T23:13:58.105Z,26.15
2022-12-15T23:16:48.031Z,25.35
2022-12-15T23:19:37.944Z,26.88
2022-12-15T23:22:27.928Z,27.45
2022-12-15T23:25:17.701Z,27.17
2022-12-15T23:28:07.974Z,29.83
2022-12-15T23:30:58.656Z,28.27
2022-12-15T23:33:49.941Z,28.50
2022-12-15T23:36:42.512Z,28.05
2022-12-15T23:39:32.301Z,27.25
2022-12-15T23:42:22.068Z,27.10
2022-12-15T23:45:12.086Z,26.65
2022-12-15T23:48:02.164Z,27.85
2022-12-15T23:50:52.168Z,27.35
2022-12-15T23:53:44.211Z,26.65
2022-12-15T23:56:34.050Z,27.75
2022-12-15T23:59:23.945Z,27.90
